createdAt,value
2022-11-10T00:02:17.460Z,100784.38
2022-11-10T00:05:02.134Z,100783.97
2022-11-10T00:07:46.801Z,100763.63
2022-11-10T00:10:32.214Z,100791.22
2022-11-10T00:13:16.814Z,100790.81
2022-11-10T00:16:22.649Z,100787.09
2022-11-10T00:19:07.874Z,100783.16
2022-11-10T00:21:52.889Z,100782.63
2022-11-10T00:24:37.621Z,100778.91
2022-11-10T00:27:22.207Z,100772.53
2022-11-10T00:30:07.280Z,100777.50
2022-11-10T00:32:51.996Z,100772.69
2022-11-10T00:35:36.714Z,100773.66
2022-11-10T00:38:21.298Z,100772.50
2022-11-10T00:41:06.181Z,100768.66
2022-11-10T00:43:51.135Z,100779.69
2022-11-10T00:46:35.673Z,100760.53
2022-11-10T00:49:20.265Z,100772.84
2022-11-10T00:52:04.916Z,100765.53
2022-11-10T00:54:49.574Z,100772.25
2022-11-10T00:57:34.138Z,100765.25
2022-11-10T01:00:19.262Z,100759.91
2022-11-10T01:03:03.928Z,100763.28
2022-11-10T01:05:48.530Z,100741.41
2022-11-10T01:08:33.078Z,100768.22
2022-11-10T01:11:18.946Z,100746.28
2022-11-10T01:14:03.790Z,100771.50
2022-11-10T01:16:48.508Z,100767.88
2022-11-10T01:19:33.559Z,100765.25
2022-11-10T01:22:18.302Z,100767.88
2022-11-10T01:25:03.637Z,100769.06
2022-11-10T01:27:48.280Z,100768.03
2022-11-10T01:30:33.036Z,100774.12
2022-11-10T01:33:17.752Z,100771.75
2022-11-10T01:36:02.735Z,100768.87
2022-11-10T01:38:47.186Z,100772.22
2022-11-10T01:41:31.918Z,100773.00
2022-11-10T01:44:21.829Z,100777.38
2022-11-10T01:47:06.655Z,100774.50
2022-11-10T01:49:51.279Z,100768.28
2022-11-10T01:52:37.112Z,100774.50
2022-11-10T01:55:23.314Z,100750.62
2022-11-10T01:58:08.339Z,100770.44
2022-11-10T02:00:53.342Z,100770.03
2022-11-10T02:03:53.374Z,100766.37
2022-11-10T02:06:40.734Z,100771.41
2022-11-10T02:09:25.504Z,100766.91
2022-11-10T02:12:11.239Z,100746.47
2022-11-10T02:14:56.030Z,100760.09
2022-11-10T02:17:41.462Z,100770.06
2022-11-10T02:20:25.913Z,100775.31
2022-11-10T02:23:15.480Z,100777.19
2022-11-10T02:26:01.610Z,100786.84
2022-11-10T02:28:46.350Z,100780.75
2022-11-10T02:31:31.233Z,100777.41
2022-11-10T02:34:16.081Z,100772.53
2022-11-10T02:37:00.674Z,100778.84
2022-11-10T02:39:45.279Z,100772.28
2022-11-10T02:42:30.000Z,100777.53
2022-11-10T02:45:14.611Z,100788.84
2022-11-10T02:47:59.138Z,100781.09
2022-11-10T02:50:44.242Z,100777.31
2022-11-10T02:53:29.057Z,100776.81
2022-11-10T02:56:13.652Z,100783.19
2022-11-10T02:58:58.406Z,100783.28
2022-11-10T03:01:43.112Z,100783.28
2022-11-10T03:04:27.498Z,100782.25
2022-11-10T03:07:12.414Z,100776.91
2022-11-10T03:09:56.834Z,100787.09
2022-11-10T03:12:41.513Z,100786.25
2022-11-10T03:15:26.284Z,100785.25
2022-11-10T03:18:11.044Z,100793.94
2022-11-10T03:20:55.951Z,100790.28
2022-11-10T03:23:40.565Z,100791.31
2022-11-10T03:26:25.121Z,100789.56
2022-11-10T03:29:09.678Z,100788.31
2022-11-10T03:31:54.519Z,100800.16
2022-11-10T03:34:39.418Z,100794.22
2022-11-10T03:37:24.143Z,100794.22
2022-11-10T03:40:09.384Z,100795.06
2022-11-10T03:42:54.190Z,100793.19
2022-11-10T03:45:38.828Z,100788.81
2022-11-10T03:48:23.427Z,100798.41
2022-11-10T03:51:08.005Z,100794.06
2022-11-10T03:53:52.375Z,100793.19
2022-11-10T03:56:37.114Z,100776.91
2022-11-10T03:59:21.539Z,100791.50
2022-11-10T04:02:06.262Z,100801.22
2022-11-10T04:05:09.551Z,100798.81
2022-11-10T04:08:20.206Z,100806.78
2022-11-10T04:11:05.158Z,100806.84
2022-11-10T04:14:08.026Z,100815.56
2022-11-10T04:16:52.824Z,100811.16
2022-11-10T04:19:37.443Z,100807.59
2022-11-10T04:22:41.881Z,100805.47
2022-11-10T04:25:26.382Z,100818.66
2022-11-10T04:28:11.040Z,100818.31
2022-11-10T04:30:55.662Z,100823.81
2022-11-10T04:33:41.879Z,100813.63
2022-11-10T04:36:29.722Z,100797.66
2022-11-10T04:39:14.324Z,100796.00
2022-11-10T04:42:02.739Z,100818.69
2022-11-10T04:44:48.380Z,100813.25
2022-11-10T04:47:33.179Z,100818.31
2022-11-10T04:50:17.881Z,100822.12
2022-11-10T04:53:02.328Z,100827.25
2022-11-10T04:55:47.420Z,100827.06
2022-11-10T04:58:31.898Z,100825.19
2022-11-10T05:01:19.186Z,100826.22
2022-11-10T05:04:05.575Z,100833.41
2022-11-10T05:06:50.026Z,100840.34
2022-11-10T05:09:34.751Z,100839.50
2022-11-10T05:12:22.352Z,100842.97
2022-11-10T05:15:07.735Z,100838.66
2022-11-10T05:17:54.418Z,100820.94
2022-11-10T05:20:38.927Z,100838.66
2022-11-10T05:23:38.412Z,100834.28
2022-11-10T05:26:23.203Z,100842.12
2022-11-10T05:29:07.926Z,100845.47
2022-11-10T05:31:52.475Z,100847.19
2022-11-10T05:34:37.049Z,100849.59
2022-11-10T05:37:21.733Z,100851.38
2022-11-10T05:40:07.098Z,100856.63
2022-11-10T05:42:52.981Z,100854.72
2022-11-10T05:45:37.793Z,100861.59
2022-11-10T05:48:22.714Z,100859.59
2022-11-10T05:51:07.215Z,100862.78
2022-11-10T05:53:51.783Z,100846.78
2022-11-10T05:56:36.343Z,100864.66
2022-11-10T05:59:20.889Z,100873.44
2022-11-10T06:02:05.372Z,100878.47
2022-11-10T06:04:49.843Z,100863.06
2022-11-10T06:07:34.859Z,100886.72
2022-11-10T06:10:19.834Z,100889.03
2022-11-10T06:13:04.922Z,100891.47
2022-11-10T06:15:50.689Z,100906.91
2022-11-10T06:18:35.250Z,100897.13
2022-11-10T06:21:20.033Z,100907.44
2022-11-10T06:24:04.974Z,100907.84
2022-11-10T06:26:49.974Z,100916.69
2022-11-10T06:29:35.853Z,100909.13
2022-11-10T06:32:21.835Z,100924.47
2022-11-10T06:35:18.708Z,100889.03
2022-11-10T06:38:06.481Z,100912.69
2022-11-10T06:40:52.353Z,100925.00
2022-11-10T06:43:37.154Z,100937.81
2022-11-10T06:46:21.870Z,100943.81
2022-11-10T06:49:06.733Z,100947.84
2022-11-10T06:51:53.839Z,100950.25
2022-11-10T06:54:43.190Z,100952.25
2022-11-10T06:57:27.956Z,100952.69
2022-11-10T07:00:13.116Z,100933.34
2022-11-10T07:03:06.711Z,100956.47
2022-11-10T07:05:51.438Z,100958.28
2022-11-10T07:08:36.196Z,100973.91
2022-11-10T07:11:20.789Z,100947.72
2022-11-10T07:14:05.385Z,100956.25
2022-11-10T07:16:50.349Z,100967.81
2022-11-10T07:19:35.987Z,100968.59
2022-11-10T07:22:20.638Z,100958.38
2022-11-10T07:25:05.664Z,100967.34
2022-11-10T07:27:57.126Z,100967.62
2022-11-10T07:30:44.480Z,100965.34
2022-11-10T07:33:29.731Z,100968.50
2022-11-10T07:36:14.168Z,100953.38
2022-11-10T07:38:59.072Z,100969.78
2022-11-10T07:41:46.624Z,100973.16
2022-11-10T07:44:33.418Z,100978.19
2022-11-10T07:47:18.979Z,100985.16
2022-11-10T07:50:05.655Z,100972.22
2022-11-10T07:52:50.262Z,100981.16
2022-11-10T07:55:36.332Z,100988.94
2022-11-10T07:58:21.190Z,100991.25
2022-11-10T08:01:07.498Z,100950.44
2022-11-10T08:03:51.931Z,100993.94
2022-11-10T08:06:36.945Z,101011.94
2022-11-10T08:09:21.944Z,101013.69
2022-11-10T08:12:07.940Z,101018.66
2022-11-10T08:14:52.664Z,101018.66
2022-11-10T08:17:37.387Z,101025.59
2022-11-10T08:20:22.223Z,101010.44
2022-11-10T08:23:07.040Z,101022.72
2022-11-10T08:25:53.312Z,100999.41
2022-11-10T08:28:48.024Z,101030.28
2022-11-10T08:31:35.730Z,101037.25
2022-11-10T08:34:31.564Z,101043.63
2022-11-10T08:37:17.979Z,101060.56
2022-11-10T08:40:04.495Z,101061.41
2022-11-10T08:42:59.757Z,101056.16
2022-11-10T08:45:45.208Z,101036.97
2022-11-10T08:48:34.883Z,101062.31
2022-11-10T08:51:27.177Z,100971.63
2022-11-10T08:54:11.773Z,101071.06
2022-11-10T08:56:56.541Z,101072.09
2022-11-10T08:59:45.427Z,101073.78
2022-11-10T09:02:30.668Z,101079.84
2022-11-10T09:05:15.635Z,101083.25
2022-11-10T09:08:00.256Z,101083.12
2022-11-10T09:10:47.269Z,101070.59
2022-11-10T09:13:32.069Z,101083.91
2022-11-10T09:16:17.078Z,101094.78
2022-11-10T09:19:01.811Z,101105.06
2022-11-10T09:22:11.410Z,101017.50
2022-11-10T09:24:56.862Z,101095.91
2022-11-10T09:27:41.640Z,101079.81
2022-11-10T09:30:26.547Z,101108.00
2022-11-10T09:33:14.659Z,101094.03
2022-11-10T09:36:01.118Z,101113.50
2022-11-10T09:38:46.650Z,101125.28
2022-11-10T09:41:31.693Z,101123.22
2022-11-10T09:44:25.991Z,101132.66
2022-11-10T09:47:29.172Z,101127.69
2022-11-10T09:50:30.673Z,101129.56
2022-11-10T09:53:22.739Z,101122.63
2022-11-10T09:56:09.067Z,101126.81
2022-11-10T09:58:53.702Z,101110.19
2022-11-10T10:01:43.605Z,101131.16
2022-11-10T10:04:52.029Z,101114.28
2022-11-10T10:07:51.788Z,101130.03
2022-11-10T10:10:42.563Z,101085.91
2022-11-10T10:13:54.144Z,101137.63
2022-11-10T10:17:14.130Z,101129.66
2022-11-10T10:20:22.146Z,101136.28
2022-11-10T10:24:07.778Z,101133.50
2022-11-10T10:26:53.098Z,101141.28
2022-11-10T10:29:42.119Z,101131.97
2022-11-10T10:32:27.152Z,101135.97
2022-11-10T10:35:18.860Z,101125.22
2022-11-10T10:38:05.002Z,101148.66
2022-11-10T10:40:51.436Z,101150.44
2022-11-10T10:43:36.320Z,101143.91
2022-11-10T10:46:28.418Z,101147.38
2022-11-10T10:49:33.812Z,101143.41
2022-11-10T10:52:24.803Z,101150.06
2022-11-10T10:55:12.879Z,101143.34
2022-11-10T10:58:03.857Z,101134.63
2022-11-10T11:00:51.757Z,101150.19
2022-11-10T11:03:46.646Z,101139.16
2022-11-10T11:06:35.395Z,101146.72
2022-11-10T11:09:41.243Z,101137.06
2022-11-10T11:12:27.741Z,101133.94
2022-11-10T11:15:23.014Z,101145.47
2022-11-10T11:18:16.335Z,101149.53
2022-11-10T11:21:02.912Z,101144.50
2022-11-10T11:23:56.726Z,101134.28
2022-11-10T11:26:50.256Z,101143.00
2022-11-10T11:29:42.692Z,101153.66
2022-11-10T11:33:20.631Z,101156.28
2022-11-10T11:36:45.784Z,101152.75
2022-11-10T11:39:59.563Z,101176.84
2022-11-10T11:43:00.336Z,101171.50
2022-11-10T11:45:56.917Z,101168.47
2022-11-10T11:48:45.769Z,101163.97
2022-11-10T11:51:49.291Z,101166.59
2022-11-10T11:55:30.092Z,101166.38
2022-11-10T11:58:32.693Z,101170.16
2022-11-10T12:01:40.256Z,101184.25
2022-11-10T12:04:53.772Z,101195.19
2022-11-10T12:08:11.300Z,101199.41
2022-11-10T12:11:08.877Z,101159.19
2022-11-10T12:13:53.173Z,101196.97
2022-11-10T12:16:38.857Z,101170.53
2022-11-10T12:19:35.582Z,101192.69
2022-11-10T12:22:35.544Z,101177.72
2022-11-10T12:25:52.883Z,101201.19
2022-11-10T12:29:18.146Z,101188.44
2022-11-10T12:32:15.570Z,101197.94
2022-11-10T12:35:21.080Z,101197.09
2022-11-10T12:38:12.572Z,101169.28
2022-11-10T12:41:09.983Z,101200.19
2022-11-10T12:44:02.241Z,101186.94
2022-11-10T12:46:52.156Z,101207.75
2022-11-10T12:49:39.396Z,101166.59
2022-11-10T12:52:35.638Z,101200.38
2022-11-10T12:55:30.654Z,101204.06
2022-11-10T12:58:17.279Z,101224.16
2022-11-10T13:01:05.532Z,101222.84
2022-11-10T13:03:59.359Z,101202.47
2022-11-10T13:06:53.137Z,101245.12
2022-11-10T13:09:41.712Z,101249.53
2022-11-10T13:12:36.687Z,101251.63
2022-11-10T13:15:52.516Z,101226.53
2022-11-10T13:18:37.283Z,101262.53
2022-11-10T13:21:51.055Z,101262.53
2022-11-10T13:24:38.216Z,101262.72
2022-11-10T13:27:38.056Z,101241.66
2022-11-10T13:30:44.904Z,101257.03
2022-11-10T13:34:14.815Z,101257.84
2022-11-10T13:37:21.245Z,101234.25
2022-11-10T13:40:30.988Z,101257.09
2022-11-10T13:43:22.054Z,101269.88
2022-11-10T13:46:08.492Z,101278.69
2022-11-10T13:49:04.850Z,101278.09
2022-11-10T13:52:19.458Z,101262.09
2022-11-10T13:55:21.885Z,101281.69
2022-11-10T13:58:17.702Z,101288.91
2022-11-10T14:01:17.796Z,101270.34
2022-11-10T14:04:12.026Z,101296.25
2022-11-10T14:06:57.558Z,101253.28
2022-11-10T14:09:52.382Z,101253.22
2022-11-10T14:13:07.260Z,101289.78
2022-11-10T14:15:58.289Z,101298.56
2022-11-10T14:18:49.576Z,101284.78
2022-11-10T14:22:25.373Z,101294.06
2022-11-10T14:26:07.073Z,101323.41
2022-11-10T14:28:52.814Z,101312.66
2022-11-10T14:31:37.576Z,101301.37
2022-11-10T14:34:23.813Z,101289.00
2022-11-10T14:37:15.977Z,101321.09
2022-11-10T14:40:04.506Z,101320.72
2022-11-10T14:42:54.216Z,101344.97
2022-11-10T14:45:41.293Z,101318.13
2022-11-10T14:48:28.480Z,101331.94
2022-11-10T14:52:19.119Z,101342.63
2022-11-10T14:55:24.310Z,101371.50
2022-11-10T14:58:13.514Z,101348.06
2022-11-10T15:01:06.029Z,101354.69
2022-11-10T15:03:52.144Z,101319.81
2022-11-10T15:06:43.203Z,101350.41
2022-11-10T15:09:31.493Z,101342.78
2022-11-10T15:12:25.506Z,101353.97
2022-11-10T15:15:23.256Z,101336.47
2022-11-10T15:18:24.520Z,101345.37
2022-11-10T15:21:12.231Z,101366.31
2022-11-10T15:24:00.824Z,101350.81
2022-11-10T15:26:45.819Z,101384.19
2022-11-10T15:29:31.103Z,101361.50
2022-11-10T15:32:17.803Z,101378.38
2022-11-10T15:35:22.654Z,101383.97
2022-11-10T15:38:27.857Z,101396.41
2022-11-10T15:41:26.812Z,101398.38
2022-11-10T15:44:16.494Z,101389.28
2022-11-10T15:47:01.181Z,101398.34
2022-11-10T15:49:46.122Z,101401.47
2022-11-10T15:52:30.977Z,101394.81
2022-11-10T15:55:20.261Z,101404.44
2022-11-10T15:58:10.854Z,101404.88
2022-11-10T16:00:55.672Z,101402.66
2022-11-10T16:03:40.615Z,101414.31
2022-11-10T16:06:25.416Z,101405.34
2022-11-10T16:09:12.945Z,101432.25
2022-11-10T16:11:57.696Z,101434.13
2022-11-10T16:14:45.396Z,101434.28
2022-11-10T16:17:29.948Z,101439.53
2022-11-10T16:20:15.301Z,101442.03
2022-11-10T16:23:00.209Z,101441.22
2022-11-10T16:25:45.455Z,101434.38
2022-11-10T16:28:30.394Z,101414.09
2022-11-10T16:31:17.025Z,101440.22
2022-11-10T16:34:01.745Z,101445.44
2022-11-10T16:36:47.469Z,101451.53
2022-11-10T16:39:32.288Z,101449.75
2022-11-10T16:42:16.877Z,101454.06
2022-11-10T16:45:01.594Z,101450.44
2022-11-10T16:47:48.666Z,101459.16
2022-11-10T16:50:37.742Z,101462.62
2022-11-10T16:53:24.742Z,101476.63
2022-11-10T16:56:14.453Z,101474.88
2022-11-10T16:58:59.234Z,101471.81
2022-11-10T17:01:45.030Z,101484.44
2022-11-10T17:04:29.621Z,101487.06
2022-11-10T17:07:14.837Z,101501.94
2022-11-10T17:10:00.853Z,101510.53
2022-11-10T17:12:46.317Z,101486.69
2022-11-10T17:15:32.258Z,101505.31
2022-11-10T17:18:18.669Z,101524.56
2022-11-10T17:21:05.605Z,101511.13
2022-11-10T17:23:50.498Z,101527.97
2022-11-10T17:26:35.295Z,101529.66
2022-11-10T17:29:21.215Z,101519.69
2022-11-10T17:32:05.960Z,101538.53
2022-11-10T17:34:50.981Z,101542.84
2022-11-10T17:37:35.615Z,101542.00
2022-11-10T17:40:25.429Z,101530.66
2022-11-10T17:43:13.937Z,101533.38
2022-11-10T17:45:59.409Z,101538.47
2022-11-10T17:48:44.316Z,101542.84
2022-11-10T17:51:30.287Z,101552.56
2022-11-10T17:54:15.467Z,101538.03
2022-11-10T17:57:00.397Z,101541.94
2022-11-10T17:59:45.313Z,101542.00
2022-11-10T18:02:29.800Z,101551.63
2022-11-10T18:05:16.755Z,101550.00
2022-11-10T18:08:02.009Z,101550.00
2022-11-10T18:10:50.529Z,101539.94
2022-11-10T18:13:36.783Z,101555.50
2022-11-10T18:16:21.742Z,101534.41
2022-11-10T18:19:06.372Z,101553.97
2022-11-10T18:21:50.905Z,101549.66
2022-11-10T18:24:35.893Z,101555.97
2022-11-10T18:27:20.456Z,101562.22
2022-11-10T18:30:05.696Z,101561.47
2022-11-10T18:32:50.691Z,101565.94
2022-11-10T18:35:38.456Z,101576.53
2022-11-10T18:38:23.030Z,101585.50
2022-11-10T18:41:26.327Z,101587.25
2022-11-10T18:44:11.120Z,101592.59
2022-11-10T18:46:56.441Z,101608.34
2022-11-10T18:49:41.152Z,101606.75
2022-11-10T18:52:26.012Z,101590.03
2022-11-10T18:55:10.936Z,101615.69
2022-11-10T18:57:55.591Z,101622.72
2022-11-10T19:00:40.113Z,101632.19
2022-11-10T19:03:25.080Z,101632.09
2022-11-10T19:06:10.249Z,101642.50
2022-11-10T19:08:56.471Z,101645.97
2022-11-10T19:11:41.094Z,101630.72
2022-11-10T19:14:25.889Z,101667.41
2022-11-10T19:17:10.744Z,101668.16
2022-11-10T19:19:56.803Z,101668.97
2022-11-10T19:22:41.653Z,101671.56
2022-11-10T19:25:26.214Z,101668.97
2022-11-10T19:28:11.631Z,101664.66
2022-11-10T19:31:13.061Z,101642.72
2022-11-10T19:33:57.898Z,101675.31
2022-11-10T19:36:42.458Z,101678.09
2022-11-10T19:39:26.835Z,101675.62
2022-11-10T19:42:11.781Z,101676.56
2022-11-10T19:44:56.345Z,101682.00
2022-11-10T19:47:41.672Z,101678.38
2022-11-10T19:50:26.381Z,101675.94
2022-11-10T19:53:10.959Z,101670.91
2022-11-10T19:56:07.497Z,101672.00
2022-11-10T19:58:52.174Z,101669.81
2022-11-10T20:01:37.596Z,101666.88
2022-11-10T20:04:22.196Z,101668.41
2022-11-10T20:07:25.084Z,101668.97
2022-11-10T20:10:10.197Z,101675.84
2022-11-10T20:12:55.345Z,101685.13
2022-11-10T20:15:41.149Z,101679.12
2022-11-10T20:18:25.777Z,101669.00
2022-11-10T20:21:12.938Z,101686.91
2022-11-10T20:23:57.779Z,101702.22
2022-11-10T20:26:42.380Z,101707.69
2022-11-10T20:29:27.144Z,101707.13
2022-11-10T20:32:11.884Z,101704.97
2022-11-10T20:34:56.420Z,101712.13
2022-11-10T20:37:41.103Z,101689.75
2022-11-10T20:40:43.324Z,101712.69
2022-11-10T20:43:28.982Z,101719.69
2022-11-10T20:46:33.409Z,101714.50
2022-11-10T20:49:21.201Z,101717.66
2022-11-10T20:52:05.953Z,101719.81
2022-11-10T20:54:50.654Z,101718.44
2022-11-10T20:57:35.517Z,101718.88
2022-11-10T21:00:20.350Z,101713.34
2022-11-10T21:03:05.541Z,101725.94
2022-11-10T21:05:54.605Z,101725.09
2022-11-10T21:08:39.525Z,101727.53
2022-11-10T21:11:42.552Z,101715.22
2022-11-10T21:14:27.407Z,101733.12
2022-11-10T21:17:12.123Z,101729.00
2022-11-10T21:19:56.629Z,101726.84
2022-11-10T21:22:41.324Z,101733.16
2022-11-10T21:25:26.079Z,101734.38
2022-11-10T21:28:10.723Z,101737.63
2022-11-10T21:31:04.963Z,101736.62
2022-11-10T21:33:49.838Z,101744.31
2022-11-10T21:36:34.714Z,101746.66
2022-11-10T21:39:19.396Z,101746.13
2022-11-10T21:42:04.209Z,101743.81
2022-11-10T21:44:48.930Z,101744.53
2022-11-10T21:47:33.778Z,101754.25
2022-11-10T21:50:19.091Z,101748.06
2022-11-10T21:53:10.477Z,101761.03
2022-11-10T21:55:59.044Z,101768.63
2022-11-10T21:58:43.822Z,101773.69
2022-11-10T22:01:28.786Z,101776.13
2022-11-10T22:04:15.021Z,101777.53
2022-11-10T22:07:17.914Z,101783.53
2022-11-10T22:10:21.019Z,101771.97
2022-11-10T22:13:24.263Z,101780.72
2022-11-10T22:16:39.150Z,101779.34
2022-11-10T22:19:24.089Z,101783.09
2022-11-10T22:22:08.603Z,101782.56
2022-11-10T22:24:53.495Z,101765.56
2022-11-10T22:27:38.149Z,101786.28
2022-11-10T22:30:23.085Z,101788.78
2022-11-10T22:33:27.089Z,101791.50
2022-11-10T22:36:14.655Z,101791.50
2022-11-10T22:39:03.422Z,101788.12
2022-11-10T22:42:07.528Z,101788.47
2022-11-10T22:44:52.215Z,101788.75
2022-11-10T22:48:06.273Z,101789.06
2022-11-10T22:50:57.639Z,101792.47
2022-11-10T22:53:42.163Z,101790.38
2022-11-10T22:56:27.325Z,101793.28
2022-11-10T22:59:12.771Z,101770.53
2022-11-10T23:01:57.439Z,101790.09
2022-11-10T23:04:42.307Z,101793.72
2022-11-10T23:07:28.477Z,101775.87
2022-11-10T23:10:13.322Z,101791.22
2022-11-10T23:12:57.833Z,101801.59
2022-11-10T23:15:42.436Z,101805.28
2022-11-10T23:18:27.069Z,101808.00
2022-11-10T23:21:15.121Z,101810.81
2022-11-10T23:23:59.816Z,101808.09
2022-11-10T23:26:44.361Z,101817.00
2022-11-10T23:29:29.204Z,101812.75
2022-11-10T23:32:13.723Z,101816.25
2022-11-10T23:34:58.523Z,101812.84
2022-11-10T23:37:43.275Z,101812.03
2022-11-10T23:40:28.203Z,101810.53
2022-11-10T23:43:12.918Z,101810.84
2022-11-10T23:46:06.759Z,101814.38
2022-11-10T23:48:52.364Z,101816.16
2022-11-10T23:51:37.399Z,101805.91
2022-11-10T23:54:21.838Z,101802.44
2022-11-10T23:57:06.431Z,101815.59
2022-11-10T23:59:51.177Z,101820.75
